Latest Weather Observations for Glen Innes Airport

IDN60801

Issued at 4:05 pm EDT Saturday 1 November 2014 (issued every 30 minutes, with the page automatically refreshed every 10 minutes)

About weather observations | Map of weather stations | Latest weather observations for NSW | Other Formats
Station Details ID: 056243 Name: GLEN INNES AIRPORT AWS Lat: -29.68 Lon: 151.69 Height: 1044.3 m
Data from the previous 72 hours. | See also: Recent months for locations in New South Wales
Date/Time
EDT
Temp
°C
App
Temp
°C
Dew
Point
Rel
Hum
%
Delta-T
°C
Wind Press
QNH
hPa
Press
MSL
hPa
Rain
since 9 am
mm
Dir
 
Spd
km/h
Gust
km/h
Spd
kts
Gust
kts
01/04:00pm 25.9 20.6 13.1 45 7.8 NW 33 48 18 26 1012.6 1008.5 5.6
01/03:38pm 26.1 20.1 12.2 42 8.4 NW 35 54 19 29 1012.7 1008.6 5.6
01/03:30pm 25.2 17.6 11.7 43 8.0 NNW 43 57 23 31 1012.6 1008.5 5.6
01/03:00pm 25.3 17.4 10.7 40 8.6 NW 43 59 23 32 1012.9 1008.7 5.6
01/02:58pm 25.4 18.0 11.2 41 8.4 NW 41 59 22 32 1012.9 1008.7 5.6
01/02:30pm 25.3 19.0 11.1 41 8.4 NNW 35 46 19 25 1013.1 1008.9 5.6
01/02:00pm 24.6 19.8 12.9 48 7.1 NNW 30 39 16 21 1013.9 1009.7 5.6
01/01:30pm 24.0 18.1 11.3 45 7.5 NNW 33 43 18 23 1014.5 1010.4 5.6
01/01:25pm 23.9 19.2 11.9 47 7.1 NNW 28 33 15 18 1014.6 1010.5 5.6
01/01:00pm 24.2 18.1 13.1 50 6.7 NW 37 44 20 24 1015.0 1010.9 5.6
01/12:30pm 23.1 18.3 11.8 49 6.7 NNW 28 41 15 22 1015.4 1011.3 5.6
01/12:00pm 22.0 18.4 13.1 57 5.3 NNW 24 35 13 19 1016.0 1011.9 5.6
01/11:30am 20.4 18.9 14.1 67 3.8 N 15 28 8 15 1016.5 1012.4 5.6
01/11:00am 18.4 18.2 14.7 79 2.3 NNE 9 15 5 8 1017.2 1013.1 5.6
01/10:30am 17.3 17.0 15.5 89 1.1 E 11 15 6 8 1017.7 1014.9 5.6
01/10:00am 15.0 13.3 14.8 99 0.1 SSE 17 20 9 11 1018.5 1015.7 5.6
01/09:30am 14.9 13.2 14.7 99 0.1 SSW 17 24 9 13 1019.5 1016.7 3.8
01/09:00am 15.2 13.5 14.7 97 0.3 SSW 17 26 9 14 1018.7 1015.9 -
01/08:30am 15.4 14.3 15.2 99 0.1 SW 15 19 8 10 1018.6 1015.8 -
01/08:00am 15.2 15.1 14.9 98 0.2 N 9 15 5 8 1017.5 1014.7 -
01/07:30am 14.9 14.8 14.9 100 0.0 N 9 13 5 7 1017.8 1015.0 -
01/07:00am 14.5 13.9 14.5 100 0.0 NNE 11 15 6 8 1017.8 1015.0 -
01/06:30am 14.5 13.9 14.5 100 0.0 W 11 13 6 7 1019.1 1016.3 -
01/06:00am 14.4 14.4 14.2 99 0.1 S 7 9 4 5 1018.1 1015.3 -
01/05:30am 14.5 14.6 14.5 100 0.0 S 7 11 4 6 1017.7 1014.9 -
01/05:00am 14.3 13.9 14.1 99 0.1 NE 9 11 5 6 1017.0 1014.1 -
01/04:30am 13.9 13.0 13.7 99 0.1 N 11 15 6 8 1017.4 1014.6 -
01/04:00am 14.2 13.6 13.4 95 0.5 NNW 9 17 5 9 1017.4 1014.6 -
01/03:30am 14.5 11.9 13.9 96 0.4 SSW 20 24 11 13 1017.2 1014.3 -
01/03:00am 14.4 13.1 13.8 96 0.4 SE 13 17 7 9 1016.7 1013.9 -
01/02:00am 14.5 11.6 12.9 90 0.9 N 20 32 11 17 1018.6 1015.8 6.2
01/01:30am 14.2 10.3 13.4 95 0.5 W 26 43 14 23 1019.6 1016.8 3.4
01/01:00am 16.0 11.9 11.4 74 2.6 WSW 24 35 13 19 1018.4 1015.6 0.8
01/12:30am 16.3 14.2 11.2 72 2.9 WNW 13 15 7 8 1017.9 1015.1 0.6
01/12:00am 19.2 14.3 9.9 55 5.2 NNW 26 33 14 18 1018.4 1015.6 0.0
 
Date/Time
EDT
Temp
°C
App
Temp
°C
Dew
Point
Rel
Hum
%
Delta-T
°C
Wind Press
QNH
hPa
Press
MSL
hPa
Rain
since 9 am
mm
Dir
 
Spd
km/h
Gust
km/h
Spd
kts
Gust
kts
31/11:30pm 20.1 14.7 10.8 55 5.3 NW 30 39 16 21 1018.4 1015.6 0.0
31/11:15pm 20.7 14.2 10.2 51 6.0 NNW 35 41 19 22 1018.2 1015.4 0.0
31/11:00pm 19.6 17.0 9.5 52 5.6 NNW 13 17 7 9 1018.1 1015.3 0.0
31/10:30pm 20.2 17.5 8.8 48 6.3 N 13 17 7 9 1018.1 1015.3 0.0
31/10:00pm 20.5 18.1 7.2 42 7.2 NNE 9 15 5 8 1017.7 1014.9 0.0
31/09:30pm 21.4 18.2 6.9 39 7.8 NNE 13 17 7 9 1017.8 1015.0 0.0
31/09:00pm 20.7 18.4 9.0 47 6.5 NNE 11 13 6 7 1017.4 1014.6 0.0
31/08:30pm 21.9 19.7 9.4 45 7.1 NNW 11 13 6 7 1017.1 1014.2 0.0
31/08:00pm 23.0 21.0 7.1 36 8.7 N 7 11 4 6 1016.5 1013.7 0.0
31/07:30pm 24.3 20.7 5.1 29 10.2 N 13 15 7 8 1016.1 1013.2 0.0
31/07:00pm 24.9 22.4 4.6 27 10.7 N 7 11 4 6 1015.4 1012.5 0.0
31/06:30pm 25.7 22.8 4.8 26 11.1 NNW 9 11 5 6 1015.1 1012.2 0.0
31/06:00pm 26.1 22.8 4.6 25 11.4 WNW 11 13 6 7 1015.3 1012.4 0.0
31/05:30pm 27.0 22.5 2.1 20 12.7 WNW 15 19 8 10 1015.3 1012.4 0.0
31/05:00pm 27.8 24.2 0.5 17 13.6 WNW 9 19 5 10 1015.2 1012.3 0.0
31/04:30pm 28.9 24.5 0.6 16 14.3 WNW 13 17 7 9 1015.4 1012.5 0.0
31/04:00pm 29.1 25.0 -0.1 15 14.5 SW 11 17 6 9 1015.7 1012.9 0.0
31/03:30pm 29.8 24.6 3.7 19 13.9 WNW 20 30 11 16 1016.0 1013.1 0.0
31/03:00pm 29.0 23.9 3.1 19 13.6 W 19 28 10 15 1016.4 1013.6 0.0
31/02:30pm 28.4 23.9 4.0 21 13.0 N 17 24 9 13 1017.0 1014.1 0.0
31/02:00pm 29.0 24.9 4.5 21 13.2 W 15 30 8 16 1017.4 1014.6 0.0
31/01:30pm 28.2 23.9 5.1 23 12.5 WNW 17 30 9 16 1017.8 1015.0 0.0
31/01:00pm 27.4 22.9 6.2 26 11.6 WNW 19 30 10 16 1018.5 1015.7 0.0
31/12:30pm 26.6 21.4 5.5 26 11.4 NNW 22 30 12 16 1019.1 1016.3 0.0
31/12:00pm 26.9 22.7 8.4 31 10.5 WNW 20 35 11 19 1019.3 1016.5 0.0
31/11:30am 26.4 21.7 7.9 31 10.4 NW 22 33 12 18 1019.8 1017.1 0.0
31/11:00am 24.5 20.9 10.4 41 8.2 WNW 20 32 11 17 1020.2 1017.4 0.0
31/10:30am 23.3 20.3 12.0 49 6.7 WNW 19 26 10 14 1020.5 1017.7 0.0
31/10:00am 22.8 20.8 13.8 57 5.5 WNW 17 24 9 13 1020.6 1017.9 0.0
31/09:30am 21.7 18.8 13.9 61 4.7 WNW 22 32 12 17 1020.8 1018.1 0.0
31/09:00am 20.6 18.8 13.3 63 4.4 NNW 15 20 8 11 1020.7 1018.0 0.0
31/08:30am 19.5 19.1 12.5 64 4.1 E 6 9 3 5 1020.6 1017.9 0.0
31/08:00am 16.4 15.9 12.6 78 2.2 E 7 9 4 5 1020.6 1017.9 0.0
31/07:30am 12.5 11.2 11.2 92 0.7 E 9 11 5 6 1020.5 1017.7 0.0
31/07:00am 10.2 8.2 10.2 100 0.0 E 11 13 6 7 1019.9 1017.2 0.0
31/06:30am 7.9 5.7 7.9 100 0.0 E 9 11 5 6 1019.8 1017.1 0.0
31/06:00am 6.4 4.2 6.4 100 0.0 ESE 7 9 4 5 1019.3 1016.5 0.0
31/05:30am 6.4 4.2 6.1 98 0.1 E 7 9 4 5 1019.2 1016.4 0.0
31/05:00am 6.9 4.4 6.5 97 0.2 ESE 9 15 5 8 1019.1 1016.3 0.0
31/04:30am 7.6 4.5 7.3 98 0.1 E 13 15 7 8 1018.9 1016.2 0.0
31/04:00am 6.9 4.6 5.5 91 0.7 SE 7 9 4 5 1018.8 1016.0 0.0
31/03:30am 8.0 6.0 6.9 93 0.5 SE 7 9 4 5 1018.7 1015.9 0.0
31/03:00am 8.6 5.6 7.5 93 0.6 E 13 15 7 8 1018.7 1015.9 0.0
31/02:30am 9.2 6.3 8.0 92 0.6 E 13 15 7 8 1018.8 1016.0 0.0
31/02:00am 8.5 6.3 7.7 95 0.4 ESE 9 13 5 7 1019.1 1016.3 0.0
31/01:30am 8.7 6.4 7.6 93 0.6 SE 9 9 5 5 1019.4 1016.6 0.0
31/01:00am 8.7 6.2 6.7 87 1.0 ESE 9 11 5 6 1019.7 1016.9 0.0
31/12:30am 9.8 6.9 6.7 81 1.5 ESE 11 11 6 6 1019.8 1017.1 0.0
31/12:00am 11.9 9.5 8.7 81 1.7 E 11 11 6 6 1019.9 1017.2 0.0
 
Date/Time
EDT
Temp
°C
App
Temp
°C
Dew
Point
Rel
Hum
%
Delta-T
°C
Wind Press
QNH
hPa
Press
MSL
hPa
Rain
since 9 am
mm
Dir
 
Spd
km/h
Gust
km/h
Spd
kts
Gust
kts
30/11:30pm 11.8 9.3 8.1 78 1.9 SE 11 13 6 7 1019.7 1016.9 0.0
30/11:00pm 12.5 9.0 7.0 69 2.8 SSE 15 17 8 9 1019.6 1016.8 0.0
30/10:30pm 13.1 9.6 7.3 68 3.0 SE 15 19 8 10 1019.4 1016.6 0.0
30/10:00pm 11.9 8.2 4.6 61 3.5 SSE 13 17 7 9 1019.1 1016.3 0.0
30/09:30pm 13.2 11.2 4.4 55 4.3 SSE 4 9 2 5 1018.9 1016.2 0.0
30/09:00pm 12.5 9.9 4.2 57 4.0 SE 7 7 4 4 1018.6 1015.8 0.0
30/08:30pm 16.4 15.2 4.8 46 5.8 CALM 0 0 0 0 1018.5 1015.7 0.0
30/08:00pm 16.2 13.7 3.9 44 6.0 S 6 6 3 3 1018.3 1015.5 0.0
30/07:30pm 20.2 17.3 2.5 31 8.7 WSW 7 9 4 5 1017.9 1015.1 0.0
30/07:00pm 22.7 19.9 3.3 28 9.8 SW 7 9 4 5 1017.6 1014.8 0.0
30/06:30pm 23.8 19.7 2.0 24 10.9 W 13 17 7 9 1017.3 1014.5 0.0
30/06:00pm 25.6 21.5 2.3 22 11.8 W 13 17 7 9 1017.2 1014.3 0.0
30/05:30pm 25.7 21.4 3.0 23 11.7 W 15 19 8 10 1017.2 1014.3 0.0
30/05:00pm 26.9 21.7 3.4 22 12.3 SW 20 30 11 16 1017.2 1014.3 0.0
30/04:30pm 26.0 21.2 2.7 22 12.0 S 17 26 9 14 1017.2 1014.3 0.0
30/04:00pm 26.8 22.3 2.0 20 12.6 SSW 15 24 8 13 1017.3 1014.5 0.0
30/03:30pm 26.8 23.4 4.0 23 12.0 W 11 17 6 9 1017.4 1014.6 0.0
30/03:00pm 26.6 21.2 2.5 21 12.4 WNW 20 32 11 17 1017.6 1014.8 0.0
30/02:30pm 26.2 22.1 2.2 21 12.2 SW 13 19 7 10 1018.1 1015.3 0.0
30/02:00pm 26.6 20.8 4.4 24 11.8 W 24 32 13 17 1018.5 1015.7 0.0
30/01:30pm 25.7 20.5 3.6 24 11.5 W 20 26 11 14 1018.8 1016.0 0.0
30/01:00pm 25.2 20.0 3.8 25 11.1 WSW 20 30 11 16 1019.2 1016.4 0.0
30/12:30pm 24.4 19.5 4.2 27 10.5 W 19 32 10 17 1019.6 1016.8 0.0
30/12:00pm 24.2 19.1 6.0 31 9.8 W 22 32 12 17 1020.0 1017.3 0.0
30/11:30am 23.5 20.1 5.9 32 9.4 W 13 19 7 10 1020.4 1017.6 0.0
30/11:00am 22.5 19.3 6.7 36 8.5 WNW 13 22 7 12 1020.5 1017.7 0.0
30/10:30am 21.6 17.7 7.1 39 7.8 WNW 17 22 9 12 1020.8 1018.1 0.0
30/10:00am 20.7 16.9 7.7 43 7.1 WNW 17 24 9 13 1021.2 1018.4 0.0
30/09:30am 19.2 16.6 9.4 53 5.5 NW 13 20 7 11 1021.2 1018.4 0.0
30/09:00am 16.9 16.5 11.2 69 3.2 NE 4 9 2 5 1021.3 1018.5 0.0
30/08:30am 13.9 13.4 12.1 89 1.0 E 6 9 3 5 1021.2 1018.4 0.0
30/08:00am 11.1 9.4 11.1 100 0.0 E 11 13 6 7 1020.9 1018.2 0.0
30/07:30am 9.7 7.6 9.7 100 0.0 ESE 11 15 6 8 1020.8 1018.1 0.0
30/07:00am 9.0 6.3 9.0 100 0.0 E 13 17 7 9 1020.5 1017.7 0.0
30/06:30am 8.2 5.7 8.2 100 0.0 ESE 11 13 6 7 1020.3 1017.5 0.0
30/06:00am 7.3 5.0 7.3 100 0.0 ESE 9 11 5 6 1019.9 1017.2 0.0
30/05:30am 6.5 4.0 6.5 100 0.0 ESE 9 11 5 6 1019.7 1016.9 0.0
30/05:00am 6.9 4.0 6.6 98 0.1 ESE 11 13 6 7 1019.4 1016.6 0.0
30/04:30am 8.8 6.1 8.8 100 0.0 SE 13 15 7 8 1019.4 1016.6 0.0
30/04:00am 8.3 5.4 8.3 100 0.0 SE 13 13 7 7 1019.5 1016.7 0.0
30/03:30am 8.0 5.4 7.7 98 0.2 SE 11 13 6 7 1019.6 1016.8 0.0
30/03:00am 8.8 6.4 8.8 100 0.0 SE 11 13 6 7 1019.5 1016.7 0.0
30/02:30am 9.0 6.9 8.4 96 0.3 ESE 9 11 5 6 1019.8 1017.1 0.0
30/02:00am 10.2 7.7 9.7 97 0.3 ESE 13 17 7 9 1019.8 1017.1 0.0
30/01:30am 9.8 7.3 9.7 99 0.1 ESE 13 15 7 8 1020.0 1017.3 0.0
30/01:00am 9.1 6.3 8.6 97 0.3 ESE 13 15 7 8 1020.5 1017.7 0.0
30/12:30am 9.8 7.2 9.2 96 0.3 ESE 13 17 7 9 1020.6 1017.9 0.0
30/12:00am 10.8 7.6 9.9 94 0.5 ESE 17 20 9 11 1020.7 1018.0 0.0
 
Date/Time
EDT
Temp
°C
App
Temp
°C
Dew
Point
Rel
Hum
%
Delta-T
°C
Wind Press
QNH
hPa
Press
MSL
hPa
Rain
since 9 am
mm
Dir
 
Spd
km/h
Gust
km/h
Spd
kts
Gust
kts
29/11:30pm 11.3 7.8 10.2 93 0.6 ESE 19 24 10 13 1020.7 1018.0 0.0
29/11:00pm 11.7 8.3 10.4 92 0.7 ESE 19 22 10 12 1020.6 1017.9 0.0
29/10:30pm 12.1 8.6 10.2 88 1.0 ESE 19 24 10 13 1020.5 1017.7 0.0
29/10:00pm 12.5 8.9 10.0 85 1.4 ESE 19 20 10 11 1020.4 1017.6 0.0
29/09:30pm 13.1 9.9 9.9 81 1.7 ESE 17 22 9 12 1020.3 1017.5 0.0
29/09:00pm 14.0 10.7 9.6 75 2.4 ESE 17 22 9 12 1020.2 1017.4 0.0
29/08:30pm 15.2 11.5 9.3 68 3.2 ESE 19 24 10 13 1019.7 1016.9 0.0
29/08:00pm 15.9 11.8 7.9 59 4.2 ESE 19 24 10 13 1019.2 1016.4 0.0
29/07:30pm 18.4 14.5 7.2 48 6.0 E 17 20 9 11 1018.5 1015.7 0.0
29/07:00pm 20.9 17.9 4.0 33 8.6 W 9 19 5 10 1017.9 1015.1 0.0
29/06:30pm 24.7 20.4 0.9 21 11.7 W 13 17 7 9 1017.5 1014.7 0.0
29/06:00pm 25.7 20.9 0.4 19 12.4 W 15 19 8 10 1017.3 1014.5 0.0
29/05:30pm 26.5 21.9 -1.3 16 13.3 WSW 13 20 7 11 1017.1 1014.2 0.0
29/05:00pm 26.7 21.3 -1.2 16 13.4 SW 17 26 9 14 1017.0 1014.1 0.0
29/04:30pm 26.8 21.4 -1.1 16 13.4 SSW 17 28 9 15 1017.0 1014.1 0.0

Other Formats:

Comma delimited format used in spreadsheet applications
http://www.bom.gov.au/fwo/IDN60801/IDN60801.94588.axf

JavaScript Object Notation format (JSON) in row-major order
http://www.bom.gov.au/fwo/IDN60801/IDN60801.94588.json